Wetterdaten: Woche 29.10.18 - 04.11.18 (KW44)
Datum Zeit Temperatur Luftfeuchte Luftdruck Niederschlag Windrichtung Sonnenschein Solar Wind
29.10.2018 00:00 1,3 C 98 % 1003,2 hPa 0,0 l/m O-NO 0,00 h 0 W/m 11,3 km/h (2 Bft)
29.10.2018 01:00 1,4 C 98 % 1003,5 hPa 0,0 l/m O-NO 0,00 h 0 W/m 9,8 km/h (2 Bft)
29.10.2018 02:00 1,6 C 98 % 1003,6 hPa 0,0 l/m O-NO 0,00 h 0 W/m 8,2 km/h (2 Bft)
29.10.2018 03:00 1,7 C 98 % 1002,8 hPa 0,0 l/m N-NO 0,00 h 0 W/m 11,3 km/h (2 Bft)
29.10.2018 04:00 1,7 C 99 % 1002,7 hPa 0,0 l/m N-NO 0,00 h 0 W/m 5,9 km/h (2 Bft)
29.10.2018 05:00 1,7 C 99 % 1002,2 hPa 0,0 l/m N-NO 0,00 h 0 W/m 8,5 km/h (2 Bft)
29.10.2018 06:00 1,8 C 99 % 1001,5 hPa 0,0 l/m N-NO 0,00 h 0 W/m 9,0 km/h (2 Bft)
29.10.2018 07:00 1,9 C 99 % 1000,8 hPa 0,0 l/m NO 0,00 h 9 W/m 9,9 km/h (2 Bft)
29.10.2018 08:00 2,3 C 99 % 1000,0 hPa 0,0 l/m NO 0,00 h 47 W/m 9,3 km/h (2 Bft)
29.10.2018 09:00 2,6 C 99 % 998,8 hPa 0,0 l/m NO 0,00 h 64 W/m 11,0 km/h (2 Bft)
29.10.2018 10:00 3,1 C 99 % 998,0 hPa 0,0 l/m O-NO 0,00 h 62 W/m 14,9 km/h (3 Bft)
29.10.2018 11:00 3,7 C 99 % 997,6 hPa 0,0 l/m O 0,00 h 59 W/m 12,9 km/h (3 Bft)
29.10.2018 12:00 4,2 C 99 % 995,9 hPa 0,0 l/m NO 0,00 h 55 W/m 13,3 km/h (3 Bft)
29.10.2018 13:00 4,3 C 99 % 994,7 hPa 0,0 l/m NO 0,00 h 46 W/m 10,7 km/h (2 Bft)
29.10.2018 14:00 4,7 C 99 % 994,3 hPa 0,0 l/m O 0,00 h 39 W/m 14,6 km/h (3 Bft)
29.10.2018 15:00 5,0 C 99 % 992,2 hPa 0,0 l/m O-NO 0,00 h 29 W/m 12,6 km/h (3 Bft)
29.10.2018 16:00 5,2 C 99 % 991,7 hPa 0,0 l/m NO 0,00 h 9 W/m 10,6 km/h (2 Bft)
29.10.2018 17:00 5,1 C 99 % 989,7 hPa 0,0 l/m NO 0,00 h 0 W/m 11,9 km/h (2 Bft)
29.10.2018 18:00 5,1 C 99 % 988,4 hPa 0,0 l/m N-NO 0,00 h 0 W/m 11,5 km/h (2 Bft)
29.10.2018 19:00 5,2 C 100 % 988,4 hPa 0,4 l/m N-NO 0,00 h 0 W/m 2,8 km/h (1 Bft)
29.10.2018 20:00 5,3 C 99 % 986,8 hPa 2,6 l/m N 0,00 h 0 W/m 8,3 km/h (2 Bft)
29.10.2018 21:00 5,2 C 99 % 985,0 hPa 0,0 l/m N-NO 0,00 h 0 W/m 8,2 km/h (2 Bft)
29.10.2018 22:00 5,3 C 100 % 984,8 hPa 0,0 l/m W-NW 0,00 h 0 W/m 4,3 km/h (1 Bft)
29.10.2018 23:00 6,7 C 100 % 984,8 hPa 0,0 l/m N 0,00 h 0 W/m 0,0 km/h (0 Bft)
30.10.2018 00:00 6,2 C 99 % 984,6 hPa 0,0 l/m S 0,00 h 0 W/m 5,6 km/h (1 Bft)
30.10.2018 01:00 5,0 C 99 % 983,1 hPa 0,0 l/m N 0,00 h 0 W/m 0,7 km/h (0 Bft)
30.10.2018 02:00 4,7 C 99 % 984,4 hPa 0,2 l/m S 0,00 h 0 W/m 0,5 km/h (0 Bft)
30.10.2018 03:00 5,0 C 100 % 985,2 hPa 0,0 l/m SW 0,00 h 0 W/m 7,0 km/h (2 Bft)
30.10.2018 04:00 6,7 C 100 % 986,8 hPa 0,0 l/m W-SW 0,00 h 0 W/m 24,0 km/h (4 Bft)
30.10.2018 05:00 6,2 C 99 % 988,8 hPa 0,0 l/m W 0,00 h 0 W/m 23,3 km/h (4 Bft)
30.10.2018 06:00 5,1 C 97 % 990,6 hPa 0,0 l/m W-SW 0,00 h 0 W/m 18,9 km/h (3 Bft)
30.10.2018 07:00 4,4 C 96 % 992,9 hPa 0,0 l/m W-SW 0,08 h 24 W/m 14,5 km/h (3 Bft)
30.10.2018 08:00 4,4 C 93 % 994,4 hPa 0,0 l/m W-SW 0,00 h 66 W/m 11,8 km/h (2 Bft)
30.10.2018 09:00 4,7 C 87 % 995,9 hPa 0,0 l/m W-SW 0,00 h 106 W/m 20,5 km/h (4 Bft)
30.10.2018 10:00 4,8 C 84 % 997,5 hPa 0,0 l/m W-SW 0,00 h 137 W/m 17,6 km/h (3 Bft)
30.10.2018 11:00 4,6 C 87 % 998,8 hPa 0,2 l/m SW 0,00 h 129 W/m 16,9 km/h (3 Bft)
30.10.2018 12:00 3,9 C 93 % 1000,0 hPa 0,6 l/m W-SW 0,00 h 134 W/m 16,9 km/h (3 Bft)
30.10.2018 13:00 3,2 C 94 % 1001,5 hPa 1,2 l/m W-SW 0,00 h 67 W/m 16,5 km/h (3 Bft)
30.10.2018 14:00 3,2 C 95 % 1002,6 hPa 0,4 l/m SW 0,00 h 87 W/m 19,8 km/h (4 Bft)
30.10.2018 15:00 3,6 C 96 % 1003,6 hPa 0,0 l/m SW 0,00 h 62 W/m 19,2 km/h (3 Bft)
30.10.2018 16:00 4,0 C 96 % 1004,6 hPa 0,0 l/m SW 0,25 h 41 W/m 18,4 km/h (3 Bft)
30.10.2018 17:00 4,2 C 96 % 1005,5 hPa 0,0 l/m SW 0,00 h 6 W/m 15,8 km/h (3 Bft)
30.10.2018 18:00 4,4 C 95 % 1006,9 hPa 0,0 l/m SW 0,00 h 0 W/m 10,9 km/h (2 Bft)
30.10.2018 19:00 4,1 C 94 % 1007,8 hPa 0,0 l/m SW 0,00 h 0 W/m 4,8 km/h (1 Bft)
30.10.2018 20:00 3,9 C 93 % 1008,2 hPa 0,0 l/m SW 0,00 h 0 W/m 12,1 km/h (2 Bft)
30.10.2018 21:00 3,4 C 91 % 1009,4 hPa 0,0 l/m N 0,00 h 0 W/m 0,3 km/h (0 Bft)
30.10.2018 22:00 2,0 C 91 % 1010,7 hPa 0,0 l/m N 0,00 h 0 W/m 0,0 km/h (0 Bft)
30.10.2018 23:00 1,0 C 92 % 1011,5 hPa 0,0 l/m N 0,00 h 0 W/m 0,0 km/h (0 Bft)
31.10.2018 00:00 0,3 C 92 % 1012,4 hPa 0,0 l/m N 0,00 h 0 W/m 0,0 km/h (0 Bft)
31.10.2018 01:00 -0,3 C 93 % 1013,4 hPa 0,0 l/m N 0,00 h 0 W/m 0,0 km/h (0 Bft)
31.10.2018 02:00 -0,6 C 93 % 1014,2 hPa 0,0 l/m N 0,00 h 0 W/m 0,0 km/h (0 Bft)
31.10.2018 03:00 -0,9 C 94 % 1014,6 hPa 0,0 l/m N 0,00 h 0 W/m 0,0 km/h (0 Bft)
31.10.2018 04:00 -0,9 C 94 % 1014,7 hPa 0,0 l/m N 0,00 h 0 W/m 0,0 km/h (0 Bft)
31.10.2018 05:00 -0,7 C 95 % 1015,0 hPa 0,0 l/m SW 0,00 h 0 W/m 1,2 km/h (1 Bft)
31.10.2018 06:00 -0,2 C 96 % 1015,1 hPa 0,0 l/m N 0,00 h 0 W/m 1,1 km/h (0 Bft)
31.10.2018 07:00 0,2 C 96 % 1015,6 hPa 0,0 l/m SW 0,17 h 25 W/m 0,4 km/h (0 Bft)
31.10.2018 08:00 1,6 C 97 % 1016,1 hPa 0,2 l/m SW 0,83 h 139 W/m 3,3 km/h (1 Bft)
31.10.2018 09:00 3,3 C 95 % 1015,8 hPa 0,0 l/m SW 0,08 h 114 W/m 1,5 km/h (1 Bft)
31.10.2018 10:00 5,4 C 91 % 1015,8 hPa 0,0 l/m W-SW 0,42 h 248 W/m 5,5 km/h (1 Bft)
31.10.2018 11:00 7,0 C 84 % 1015,7 hPa 0,0 l/m W-SW 0,42 h 238 W/m 7,8 km/h (2 Bft)
31.10.2018 12:00 7,3 C 83 % 1015,0 hPa 0,0 l/m N-NO 0,00 h 158 W/m 7,5 km/h (2 Bft)
31.10.2018 13:00 7,4 C 86 % 1014,4 hPa 0,0 l/m N-NO 0,00 h 163 W/m 9,7 km/h (2 Bft)
31.10.2018 14:00 7,9 C 85 % 1014,0 hPa 0,0 l/m N-NO 0,00 h 130 W/m 5,3 km/h (1 Bft)
31.10.2018 15:00 7,7 C 86 % 1013,4 hPa 0,0 l/m N-NO 0,00 h 53 W/m 5,0 km/h (1 Bft)
31.10.2018 16:00 6,8 C 90 % 1013,2 hPa 0,0 l/m N-NO 0,00 h 10 W/m 6,4 km/h (2 Bft)
31.10.2018 17:00 6,3 C 90 % 1013,0 hPa 0,0 l/m N-NO 0,00 h 6 W/m 2,4 km/h (1 Bft)
31.10.2018 18:00 5,4 C 91 % 1012,8 hPa 0,0 l/m N-NO 0,00 h 0 W/m 3,3 km/h (1 Bft)
31.10.2018 19:00 4,8 C 93 % 1012,7 hPa 0,0 l/m N-NO 0,00 h 0 W/m 3,8 km/h (1 Bft)
31.10.2018 20:00 4,4 C 93 % 1012,9 hPa 0,0 l/m N-NO 0,00 h 0 W/m 0,9 km/h (0 Bft)
31.10.2018 21:00 4,0 C 94 % 1012,9 hPa 0,0 l/m N-NO 0,00 h 0 W/m 2,1 km/h (1 Bft)
31.10.2018 22:00 3,8 C 95 % 1012,4 hPa 0,0 l/m N-NO 0,00 h 0 W/m 0,9 km/h (0 Bft)
31.10.2018 23:00 3,8 C 95 % 1012,2 hPa 0,0 l/m N-NO 0,00 h 0 W/m 3,1 km/h (1 Bft)
01.11.2018 00:00 3,8 C 96 % 1012,2 hPa 0,0 l/m N-NO 0,00 h 0 W/m 1,7 km/h (1 Bft)
01.11.2018 01:00 3,8 C 96 % 1012,2 hPa 0,0 l/m N-NO 0,00 h 0 W/m 3,1 km/h (1 Bft)
01.11.2018 02:00 3,7 C 96 % 1011,6 hPa 0,0 l/m N-NO 0,00 h 0 W/m 1,7 km/h (1 Bft)
01.11.2018 03:00 3,6 C 96 % 1010,9 hPa 0,0 l/m N-NO 0,00 h 0 W/m 5,1 km/h (1 Bft)
01.11.2018 04:00 3,6 C 97 % 1010,6 hPa 0,0 l/m N 0,00 h 0 W/m 0,8 km/h (0 Bft)
01.11.2018 05:00 3,6 C 97 % 1010,0 hPa 0,0 l/m N 0,00 h 0 W/m 0,5 km/h (0 Bft)
01.11.2018 06:00 3,9 C 97 % 1009,4 hPa 0,0 l/m N-NO 0,00 h 0 W/m 2,9 km/h (1 Bft)
01.11.2018 07:00 4,0 C 97 % 1009,5 hPa 0,0 l/m N-NO 0,00 h 7 W/m 2,1 km/h (1 Bft)
01.11.2018 08:00 4,3 C 97 % 1009,8 hPa 0,0 l/m N-NO 0,00 h 19 W/m 4,1 km/h (1 Bft)
01.11.2018 09:00 4,9 C 98 % 1010,4 hPa 0,0 l/m N-NO 0,00 h 46 W/m 1,5 km/h (1 Bft)
01.11.2018 10:00 5,6 C 98 % 1010,3 hPa 0,0 l/m N-NO 0,08 h 128 W/m 2,8 km/h (1 Bft)
01.11.2018 11:00 8,7 C 93 % 1010,3 hPa 0,0 l/m S-SW 1,00 h 455 W/m 13,7 km/h (3 Bft)
01.11.2018 12:00 11,2 C 82 % 1010,7 hPa 0,0 l/m S-SW 1,00 h 463 W/m 16,0 km/h (3 Bft)
01.11.2018 13:00 13,2 C 71 % 1010,8 hPa 0,0 l/m SW 1,00 h 422 W/m 18,1 km/h (3 Bft)
01.11.2018 14:00 13,3 C 67 % 1011,0 hPa 0,0 l/m W 1,00 h 332 W/m 15,3 km/h (3 Bft)
01.11.2018 15:00 12,6 C 69 % 1011,1 hPa 0,0 l/m SW 1,00 h 193 W/m 12,5 km/h (3 Bft)
01.11.2018 16:00 11,3 C 75 % 1011,2 hPa 0,0 l/m N 0,33 h 33 W/m 1,2 km/h (1 Bft)
01.11.2018 17:00 9,4 C 81 % 1011,9 hPa 0,0 l/m N 0,00 h 5 W/m 0,0 km/h (0 Bft)
01.11.2018 18:00 7,6 C 84 % 1013,1 hPa 0,0 l/m N 0,00 h 0 W/m 0,3 km/h (0 Bft)
01.11.2018 19:00 6,2 C 88 % 1014,6 hPa 0,0 l/m SW 0,00 h 0 W/m 1,2 km/h (1 Bft)
01.11.2018 20:00 5,1 C 90 % 1015,8 hPa 0,0 l/m N 0,00 h 0 W/m 0,0 km/h (0 Bft)
01.11.2018 21:00 4,3 C 91 % 1016,6 hPa 0,0 l/m N 0,00 h 0 W/m 0,4 km/h (0 Bft)
01.11.2018 22:00 3,7 C 92 % 1017,3 hPa 0,0 l/m N 0,00 h 0 W/m 0,0 km/h (0 Bft)
01.11.2018 23:00 3,1 C 93 % 1017,3 hPa 0,0 l/m N 0,00 h 0 W/m 0,0 km/h (0 Bft)
02.11.2018 00:00 2,5 C 94 % 1017,5 hPa 0,0 l/m N 0,00 h 0 W/m 0,0 km/h (0 Bft)
02.11.2018 01:00 2,4 C 94 % 1017,7 hPa 0,0 l/m N 0,00 h 0 W/m 0,0 km/h (0 Bft)
02.11.2018 02:00 2,5 C 95 % 1018,0 hPa 0,0 l/m N 0,00 h 0 W/m 0,3 km/h (0 Bft)
02.11.2018 03:00 2,2 C 95 % 1018,2 hPa 0,0 l/m N 0,00 h 0 W/m 0,0 km/h (0 Bft)
02.11.2018 04:00 2,4 C 96 % 1018,3 hPa 0,2 l/m N 0,00 h 0 W/m 0,0 km/h (0 Bft)
02.11.2018 05:00 2,9 C 96 % 1018,8 hPa 0,0 l/m N 0,00 h 0 W/m 0,0 km/h (0 Bft)
02.11.2018 06:00 3,3 C 96 % 1019,1 hPa 0,0 l/m N 0,00 h 0 W/m 0,0 km/h (0 Bft)
02.11.2018 07:00 3,3 C 97 % 1019,6 hPa 0,0 l/m N 0,00 h 23 W/m 0,0 km/h (0 Bft)
02.11.2018 08:00 3,9 C 97 % 1020,4 hPa 0,0 l/m N 0,00 h 62 W/m 0,0 km/h (0 Bft)
02.11.2018 09:00 5,8 C 98 % 1020,8 hPa 0,0 l/m N 0,00 h 94 W/m 0,0 km/h (0 Bft)
02.11.2018 10:00 7,8 C 98 % 1020,5 hPa 0,0 l/m SW 0,00 h 182 W/m 0,3 km/h (0 Bft)
02.11.2018 11:00 9,6 C 92 % 1020,5 hPa 0,0 l/m SW 0,67 h 343 W/m 6,6 km/h (2 Bft)
02.11.2018 12:00 12,1 C 80 % 1020,1 hPa 0,0 l/m N-NO 1,00 h 446 W/m 9,0 km/h (2 Bft)
02.11.2018 13:00 12,6 C 72 % 1020,3 hPa 0,0 l/m O-NO 1,00 h 333 W/m 13,7 km/h (3 Bft)
02.11.2018 14:00 12,0 C 73 % 1020,4 hPa 0,0 l/m O-NO 0,00 h 158 W/m 9,5 km/h (2 Bft)
02.11.2018 15:00 11,4 C 75 % 1020,7 hPa 0,0 l/m O-NO 0,00 h 75 W/m 6,1 km/h (2 Bft)
02.11.2018 16:00 10,8 C 79 % 1021,5 hPa 0,0 l/m N 0,00 h 17 W/m 1,7 km/h (1 Bft)
02.11.2018 17:00 10,2 C 82 % 1022,1 hPa 0,0 l/m N 0,00 h 0 W/m 2,0 km/h (1 Bft)
02.11.2018 18:00 9,7 C 84 % 1022,7 hPa 0,0 l/m NO 0,00 h 0 W/m 3,5 km/h (1 Bft)
02.11.2018 19:00 9,1 C 86 % 1023,6 hPa 0,0 l/m NO 0,00 h 0 W/m 0,8 km/h (0 Bft)
02.11.2018 20:00 8,8 C 89 % 1023,9 hPa 0,0 l/m N 0,00 h 0 W/m 2,4 km/h (1 Bft)
02.11.2018 21:00 8,6 C 90 % 1024,3 hPa 0,0 l/m NO 0,00 h 0 W/m 6,1 km/h (2 Bft)
02.11.2018 22:00 8,6 C 90 % 1024,8 hPa 0,0 l/m NO 0,00 h 0 W/m 5,6 km/h (1 Bft)
02.11.2018 23:00 8,5 C 91 % 1024,9 hPa 0,0 l/m NO 0,00 h 0 W/m 4,4 km/h (1 Bft)
03.11.2018 00:00 8,3 C 91 % 1024,9 hPa 0,0 l/m N 0,00 h 0 W/m 2,4 km/h (1 Bft)
03.11.2018 01:00 8,2 C 91 % 1024,6 hPa 0,0 l/m NO 0,00 h 0 W/m 5,2 km/h (1 Bft)
03.11.2018 02:00 8,1 C 91 % 1024,4 hPa 0,0 l/m NO 0,00 h 0 W/m 2,4 km/h (1 Bft)
03.11.2018 03:00 8,0 C 91 % 1023,9 hPa 0,0 l/m NO 0,00 h 0 W/m 1,5 km/h (1 Bft)
03.11.2018 04:00 7,8 C 92 % 1023,7 hPa 0,0 l/m NO 0,00 h 0 W/m 3,5 km/h (1 Bft)
03.11.2018 05:00 7,7 C 92 % 1024,0 hPa 0,0 l/m N 0,00 h 0 W/m 0,0 km/h (0 Bft)
03.11.2018 06:00 7,5 C 92 % 1023,8 hPa 0,0 l/m N 0,00 h 0 W/m 0,0 km/h (0 Bft)
03.11.2018 07:00 7,4 C 91 % 1024,0 hPa 0,0 l/m N 0,00 h 15 W/m 0,0 km/h (0 Bft)
03.11.2018 08:00 7,6 C 91 % 1024,2 hPa 0,0 l/m N 0,00 h 65 W/m 0,0 km/h (0 Bft)
03.11.2018 09:00 8,3 C 89 % 1024,1 hPa 0,0 l/m N 0,00 h 147 W/m 0,0 km/h (0 Bft)
03.11.2018 10:00 9,2 C 86 % 1023,8 hPa 0,0 l/m N 0,50 h 213 W/m 0,0 km/h (0 Bft)
03.11.2018 11:00 9,8 C 84 % 1023,5 hPa 0,0 l/m N 0,50 h 254 W/m 0,0 km/h (0 Bft)
03.11.2018 12:00 10,1 C 84 % 1023,2 hPa 0,0 l/m N 0,00 h 149 W/m 0,0 km/h (0 Bft)
03.11.2018 13:00 9,7 C 86 % 1022,5 hPa 0,0 l/m O-NO 0,00 h 89 W/m 3,4 km/h (1 Bft)
03.11.2018 14:00 9,6 C 87 % 1021,9 hPa 0,0 l/m O-NO 0,00 h 61 W/m 12,2 km/h (2 Bft)
03.11.2018 15:00 9,6 C 88 % 1021,6 hPa 0,0 l/m O-NO 0,00 h 36 W/m 9,7 km/h (2 Bft)
03.11.2018 16:00 9,5 C 88 % 1021,2 hPa 0,0 l/m O-NO 0,00 h 12 W/m 8,3 km/h (2 Bft)
03.11.2018 17:00 9,4 C 89 % 1021,2 hPa 0,0 l/m NO 0,00 h 0 W/m 7,4 km/h (2 Bft)
03.11.2018 18:00 9,3 C 90 % 1021,3 hPa 0,0 l/m NO 0,00 h 0 W/m 7,0 km/h (2 Bft)
03.11.2018 19:00 9,1 C 92 % 1021,0 hPa 0,0 l/m NO 0,00 h 0 W/m 4,4 km/h (1 Bft)
03.11.2018 20:00 9,0 C 92 % 1020,7 hPa 0,0 l/m N 0,00 h 0 W/m 1,6 km/h (1 Bft)
03.11.2018 21:00 8,9 C 93 % 1020,5 hPa 0,0 l/m N 0,00 h 0 W/m 0,0 km/h (0 Bft)
03.11.2018 22:00 8,9 C 93 % 1020,0 hPa 0,0 l/m NO 0,00 h 0 W/m 2,7 km/h (1 Bft)
03.11.2018 23:00 8,8 C 93 % 1019,7 hPa 0,0 l/m O-NO 0,00 h 0 W/m 3,6 km/h (1 Bft)
04.11.2018 00:00 8,9 C 92 % 1019,1 hPa 0,0 l/m N 0,00 h 0 W/m 0,7 km/h (0 Bft)
04.11.2018 01:00 8,9 C 92 % 1018,5 hPa 0,0 l/m N 0,00 h 0 W/m 0,0 km/h (0 Bft)
04.11.2018 02:00 8,8 C 92 % 1018,2 hPa 0,0 l/m N 0,00 h 0 W/m 0,8 km/h (0 Bft)
04.11.2018 03:00 8,8 C 92 % 1017,5 hPa 0,0 l/m N 0,00 h 0 W/m 1,6 km/h (1 Bft)
04.11.2018 04:00 8,6 C 92 % 1016,9 hPa 0,0 l/m O-NO 0,00 h 0 W/m 0,5 km/h (0 Bft)
04.11.2018 05:00 8,5 C 93 % 1016,7 hPa 0,0 l/m O-NO 0,00 h 0 W/m 2,1 km/h (1 Bft)
04.11.2018 06:00 8,3 C 93 % 1016,1 hPa 0,0 l/m O-NO 0,00 h 0 W/m 1,7 km/h (1 Bft)
04.11.2018 07:00 8,2 C 94 % 1016,1 hPa 0,0 l/m O-NO 0,00 h 8 W/m 3,2 km/h (1 Bft)
04.11.2018 08:00 8,2 C 94 % 1016,4 hPa 0,0 l/m O-NO 0,00 h 50 W/m 6,0 km/h (2 Bft)
04.11.2018 09:00 8,4 C 94 % 1015,9 hPa 0,0 l/m O-NO 0,00 h 65 W/m 5,6 km/h (1 Bft)
04.11.2018 10:00 8,5 C 94 % 1015,3 hPa 0,0 l/m O 0,00 h 56 W/m 7,6 km/h (2 Bft)
04.11.2018 11:00 8,6 C 94 % 1014,9 hPa 0,0 l/m O 0,00 h 65 W/m 9,9 km/h (2 Bft)
04.11.2018 12:00 8,7 C 94 % 1014,2 hPa 0,0 l/m O 0,00 h 84 W/m 9,8 km/h (2 Bft)
04.11.2018 13:00 8,9 C 94 % 1013,2 hPa 0,0 l/m O-NO 0,00 h 94 W/m 10,1 km/h (2 Bft)
04.11.2018 14:00 9,3 C 93 % 1012,6 hPa 0,0 l/m O-NO 0,00 h 71 W/m 11,7 km/h (2 Bft)
04.11.2018 15:00 9,3 C 93 % 1012,1 hPa 0,0 l/m O-NO 0,00 h 41 W/m 11,4 km/h (2 Bft)
04.11.2018 16:00 9,2 C 93 % 1011,9 hPa 0,0 l/m O-NO 0,00 h 11 W/m 8,6 km/h (2 Bft)
04.11.2018 17:00 9,0 C 94 % 1011,4 hPa 0,0 l/m O-NO 0,00 h 0 W/m 11,8 km/h (2 Bft)
04.11.2018 18:00 8,9 C 95 % 1011,4 hPa 0,0 l/m O-NO 0,00 h 0 W/m 10,3 km/h (2 Bft)
04.11.2018 19:00 8,9 C 95 % 1011,2 hPa 0,0 l/m O-NO 0,00 h 0 W/m 5,6 km/h (1 Bft)
04.11.2018 20:00 8,9 C 95 % 1011,2 hPa 0,0 l/m O-NO 0,00 h 0 W/m 1,9 km/h (1 Bft)
04.11.2018 21:00 8,9 C 96 % 1010,9 hPa 0,0 l/m O-NO 0,00 h 0 W/m 6,3 km/h (2 Bft)
04.11.2018 22:00 8,8 C 96 % 1010,5 hPa 0,0 l/m O-NO 0,00 h 0 W/m 6,5 km/h (2 Bft)
04.11.2018 23:00 8,7 C 96 % 1009,9 hPa 0,0 l/m O-NO 0,00 h 0 W/m 6,6 km/h (2 Bft)
Min-Datum _ 31.10.18 01.11.18 30.10.18 - - - - 29.10.18
_ Min-Zeit 03:55 13:35 01:20 - - - - 00:20
Minimum _ -1,0 C 65 % 982,6 hPa - - - - 0,0 km/h (0 Bft)
Max-Datum _ 01.11.18 29.10.18 02.11.18 29.10.18 - 30.10.18 01.11.18 30.10.18
_ Max-Zeit 13:35 19:15 23:25 20:00 - 07:15 10:55 05:50
Maximum _ 13,6 C 100 % 1025,0 hPa 2,6 l/m - 0,08 h 548 W/m 35,4 km/h
W (5 Bft)
Durchschnitt _ 6,1 C 92 % 1011,1 hPa #6,0 l/m O-NO #11:20 h 109 W/m 5,9 km/h (2 Bft)